Terminal Aerodrome Forecast
Issued by NWS

Home | Current Version | Previous Version | Text Only | Print | Product List | Glossary On
Versions: 1 2 3 4 5 6 7 8 9 10 11 12 13 14 15
000
FTUS43 KPAH 010520
TAFCGI
TAF
KCGI 010520Z 0106/0206 23002KT P6SM BKN050
     FM011400 VRB04KT P6SM BKN100
      TEMPO 0118/0122 -SHRA
     FM020000 19005KT 6SM -SHRA BKN100 PROB30 0200/0206 TS BKN060CB=

USA.gov is the U.S. government's official web portal to all federal, state and local government web resources and services.